Elba, AL (36323)

9:26 AM CDT on July 05, 2015 (GMT -0500)
APRSWXNET | | Change Station
CLOSE
Current Station
Personal Weather Station
Location: Elba, AL
Elevation: 400 ft
Nearby Weather Stations

Elev 400 ft 31.41 °N, 86.09 °W | Updated 20 minutes ago

Rain
Rain
70 °F
Feels Like 70 °F
N
0
Wind Variable Wind from ESE
Gusts 0.0 mph

Today
High -- | Low -- °F
--% Chance of Precip.
Yesterday
High -- | Low -- °F
Precip. -- in
5:44 AM 7:52 PM
Waning Gibbous, 84% visible
Pressure 30.19 in
Visibility 2.0 miles
Clouds Few 4700 ft
Mostly Cloudy 9000 ft
Overcast 11000 ft
Dew Point 69 °F
Humidity 98%
Rainfall in
Snow Depth Not available.
UV 2 out of 12
Pollen .50 out of 12
Air Quality Not available.
Flu Activity Not available.
SPECI KLOR 051411Z AUTO 00000KT 2SM TSRA BR FEW047 BKN090 OVC110 22/21 A3019 RMK AO2 P0004 T02170206

More Conditions Fewer Conditions

Pressure 30.19 in
Visibility 2.0 miles
Clouds Few 4700 ft
Mostly Cloudy 9000 ft
Overcast 11000 ft
Dew Point 69 °F
Humidity 98%
Rainfall in
Snow Depth Not available.
UV 2 out of 12
Pollen .50 out of 12
Air Quality Not available.
Flu Activity Not available.
SPECI KLOR 051411Z AUTO 00000KT 2SM TSRA BR FEW047 BKN090 OVC110 22/21 A3019 RMK AO2 P0004 T02170206

More Conditions Fewer Conditions

10-Day Weather Forecast

×

Almanac

Astronomy

Jul. 05, 2015 Rise Set
Actual Time
Civil Twilight
Nautical Twilight
Astronomical Twilight
Moon
Length of Visible Light
Length of Day
Tomorrow will be .
, % of the Moon is Illuminated

Today's Extremes

State Highs State Lows

Community

WunderPhotos

Upload Photos

1,835,269 photos uploaded!

WunderBlogs® & News

Nearby

Air Quality

  Air Quality AQ Index Pollutant
Not available.

Snow Depth

Station Depth Elevation

Earthquake Activity

City Distance Mag. Time & Date
Minimum magnitude displayed is 2.5.

Coastal Water Temperatures

Place Temperature

Stations

Nearby Weather Stations

Station Location Temp. Windchill Dew Point Humidity Wind Precip. Elev Updated Type